sensor_id;sensor_type;location;lat;lon;timestamp;P1;durP1;ratioP1;P2;durP2;ratioP2
12976;SDS011;6553;48.412;9.514;2024-03-02T00:00:18;2.50;;;2.30;;
12976;SDS011;6553;48.412;9.514;2024-03-02T00:02:47;2.80;;;2.60;;
12976;SDS011;6553;48.412;9.514;2024-03-02T00:05:16;2.60;;;2.40;;
12976;SDS011;6553;48.412;9.514;2024-03-02T00:07:54;2.40;;;2.20;;
12976;SDS011;6553;48.412;9.514;2024-03-02T00:10:22;2.65;;;2.45;;
12976;SDS011;6553;48.412;9.514;2024-03-02T00:12:55;2.70;;;2.50;;
12976;SDS011;6553;48.412;9.514;2024-03-02T00:18:12;2.40;;;2.20;;
12976;SDS011;6553;48.412;9.514;2024-03-02T00:20:43;2.38;;;2.17;;
12976;SDS011;6553;48.412;9.514;2024-03-02T00:23:10;2.60;;;2.40;;
12976;SDS011;6553;48.412;9.514;2024-03-02T00:25:44;2.83;;;2.58;;
12976;SDS011;6553;48.412;9.514;2024-03-02T00:28:24;2.47;;;2.28;;
12976;SDS011;6553;48.412;9.514;2024-03-02T00:31:03;2.47;;;2.28;;
12976;SDS011;6553;48.412;9.514;2024-03-02T00:33:36;2.30;;;2.10;;
12976;SDS011;6553;48.412;9.514;2024-03-02T00:36:14;2.45;;;2.25;;
12976;SDS011;6553;48.412;9.514;2024-03-02T00:38:47;2.53;;;2.33;;
12976;SDS011;6553;48.412;9.514;2024-03-02T00:41:21;2.17;;;2.08;;
12976;SDS011;6553;48.412;9.514;2024-03-02T00:43:56;2.60;;;2.40;;
12976;SDS011;6553;48.412;9.514;2024-03-02T00:46:27;2.40;;;2.20;;
12976;SDS011;6553;48.412;9.514;2024-03-02T00:49:00;2.42;;;2.22;;
12976;SDS011;6553;48.412;9.514;2024-03-02T00:51:29;2.55;;;2.15;;
12976;SDS011;6553;48.412;9.514;2024-03-02T00:53:58;2.55;;;2.35;;
12976;SDS011;6553;48.412;9.514;2024-03-02T00:56:29;3.20;;;2.47;;
12976;SDS011;6553;48.412;9.514;2024-03-02T00:58:56;2.97;;;2.67;;
12976;SDS011;6553;48.412;9.514;2024-03-02T01:01:22;2.10;;;2.00;;
12976;SDS011;6553;48.412;9.514;2024-03-02T01:03:49;2.35;;;2.17;;
12976;SDS011;6553;48.412;9.514;2024-03-02T01:06:15;2.35;;;2.15;;
12976;SDS011;6553;48.412;9.514;2024-03-02T01:08:42;2.45;;;2.25;;
12976;SDS011;6553;48.412;9.514;2024-03-02T01:11:08;2.50;;;2.20;;
12976;SDS011;6553;48.412;9.514;2024-03-02T01:13:34;2.45;;;2.25;;
12976;SDS011;6553;48.412;9.514;2024-03-02T01:16:00;2.22;;;2.10;;
12976;SDS011;6553;48.412;9.514;2024-03-02T01:18:27;2.30;;;2.10;;
12976;SDS011;6553;48.412;9.514;2024-03-02T01:20:53;2.45;;;2.25;;
12976;SDS011;6553;48.412;9.514;2024-03-02T01:23:24;2.10;;;2.00;;
12976;SDS011;6553;48.412;9.514;2024-03-02T01:25:50;2.30;;;2.10;;
12976;SDS011;6553;48.412;9.514;2024-03-02T01:28:17;2.10;;;2.00;;
12976;SDS011;6553;48.412;9.514;2024-03-02T01:30:47;2.40;;;2.20;;
12976;SDS011;6553;48.412;9.514;2024-03-02T01:33:13;2.30;;;2.10;;
12976;SDS011;6553;48.412;9.514;2024-03-02T01:35:39;2.25;;;2.15;;
12976;SDS011;6553;48.412;9.514;2024-03-02T01:38:05;3.08;;;2.35;;
12976;SDS011;6553;48.412;9.514;2024-03-02T01:40:32;2.33;;;2.13;;
12976;SDS011;6553;48.412;9.514;2024-03-02T01:42:59;2.33;;;2.13;;
12976;SDS011;6553;48.412;9.514;2024-03-02T01:45:25;2.10;;;2.00;;
12976;SDS011;6553;48.412;9.514;2024-03-02T01:47:51;2.10;;;2.00;;
12976;SDS011;6553;48.412;9.514;2024-03-02T01:50:27;2.05;;;1.90;;
12976;SDS011;6553;48.412;9.514;2024-03-02T01:52:58;2.00;;;1.90;;
12976;SDS011;6553;48.412;9.514;2024-03-02T01:55:24;1.90;;;1.80;;
12976;SDS011;6553;48.412;9.514;2024-03-02T01:57:50;2.35;;;2.15;;
12976;SDS011;6553;48.412;9.514;2024-03-02T02:00:18;2.42;;;2.05;;
12976;SDS011;6553;48.412;9.514;2024-03-02T02:02:45;2.10;;;2.00;;
12976;SDS011;6553;48.412;9.514;2024-03-02T02:05:13;2.30;;;2.10;;
12976;SDS011;6553;48.412;9.514;2024-03-02T02:07:40;1.80;;;1.70;;
12976;SDS011;6553;48.412;9.514;2024-03-02T02:10:09;2.03;;;1.92;;
12976;SDS011;6553;48.412;9.514;2024-03-02T02:12:36;1.80;;;1.70;;
12976;SDS011;6553;48.412;9.514;2024-03-02T02:15:02;1.80;;;1.70;;
12976;SDS011;6553;48.412;9.514;2024-03-02T02:17:46;2.20;;;2.10;;
12976;SDS011;6553;48.412;9.514;2024-03-02T02:20:11;2.30;;;2.10;;
12976;SDS011;6553;48.412;9.514;2024-03-02T02:22:37;2.22;;;2.03;;
12976;SDS011;6553;48.412;9.514;2024-03-02T02:25:03;2.05;;;1.80;;
12976;SDS011;6553;48.412;9.514;2024-03-02T02:27:29;2.05;;;1.95;;
12976;SDS011;6553;48.412;9.514;2024-03-02T02:29:55;2.00;;;1.90;;
12976;SDS011;6553;48.412;9.514;2024-03-02T02:32:21;2.30;;;2.10;;
12976;SDS011;6553;48.412;9.514;2024-03-02T02:34:47;1.63;;;1.52;;
12976;SDS011;6553;48.412;9.514;2024-03-02T02:37:17;1.95;;;1.77;;
12976;SDS011;6553;48.412;9.514;2024-03-02T02:39:43;2.00;;;1.90;;
12976;SDS011;6553;48.412;9.514;2024-03-02T02:42:11;2.05;;;1.95;;
12976;SDS011;6553;48.412;9.514;2024-03-02T02:44:37;1.90;;;1.80;;
12976;SDS011;6553;48.412;9.514;2024-03-02T02:47:03;2.08;;;1.98;;
12976;SDS011;6553;48.412;9.514;2024-03-02T02:49:28;1.92;;;1.83;;
12976;SDS011;6553;48.412;9.514;2024-03-02T02:51:54;1.83;;;1.73;;
12976;SDS011;6553;48.412;9.514;2024-03-02T02:54:20;1.70;;;1.60;;
12976;SDS011;6553;48.412;9.514;2024-03-02T02:56:45;1.95;;;1.83;;
12976;SDS011;6553;48.412;9.514;2024-03-02T02:59:11;1.70;;;1.60;;
12976;SDS011;6553;48.412;9.514;2024-03-02T03:01:37;1.90;;;1.80;;
12976;SDS011;6553;48.412;9.514;2024-03-02T03:04:02;1.90;;;1.80;;
12976;SDS011;6553;48.412;9.514;2024-03-02T03:06:28;1.90;;;1.80;;
12976;SDS011;6553;48.412;9.514;2024-03-02T03:08:54;2.00;;;1.80;;
12976;SDS011;6553;48.412;9.514;2024-03-02T03:11:20;1.70;;;1.60;;
12976;SDS011;6553;48.412;9.514;2024-03-02T03:13:47;1.73;;;1.63;;
12976;SDS011;6553;48.412;9.514;2024-03-02T03:16:13;1.90;;;1.80;;
12976;SDS011;6553;48.412;9.514;2024-03-02T03:18:39;1.55;;;1.45;;
12976;SDS011;6553;48.412;9.514;2024-03-02T03:21:04;1.85;;;1.73;;
12976;SDS011;6553;48.412;9.514;2024-03-02T03:23:30;1.98;;;1.60;;
12976;SDS011;6553;48.412;9.514;2024-03-02T03:25:56;2.50;;;1.88;;
12976;SDS011;6553;48.412;9.514;2024-03-02T03:28:22;2.03;;;1.92;;
12976;SDS011;6553;48.412;9.514;2024-03-02T03:30:47;1.70;;;1.50;;
12976;SDS011;6553;48.412;9.514;2024-03-02T03:33:13;1.90;;;1.80;;
12976;SDS011;6553;48.412;9.514;2024-03-02T03:35:39;1.90;;;1.70;;
12976;SDS011;6553;48.412;9.514;2024-03-02T03:38:04;1.85;;;1.75;;
12976;SDS011;6553;48.412;9.514;2024-03-02T03:40:30;1.80;;;1.70;;
12976;SDS011;6553;48.412;9.514;2024-03-02T03:42:56;1.73;;;1.63;;
12976;SDS011;6553;48.412;9.514;2024-03-02T03:45:22;1.73;;;1.63;;
12976;SDS011;6553;48.412;9.514;2024-03-02T03:47:47;1.70;;;1.60;;
12976;SDS011;6553;48.412;9.514;2024-03-02T03:50:13;1.90;;;1.80;;
12976;SDS011;6553;48.412;9.514;2024-03-02T03:52:39;1.75;;;1.65;;
12976;SDS011;6553;48.412;9.514;2024-03-02T03:55:05;1.70;;;1.60;;
12976;SDS011;6553;48.412;9.514;2024-03-02T03:57:31;1.90;;;1.80;;
12976;SDS011;6553;48.412;9.514;2024-03-02T03:59:57;1.83;;;1.73;;
12976;SDS011;6553;48.412;9.514;2024-03-02T04:02:23;1.88;;;1.77;;
12976;SDS011;6553;48.412;9.514;2024-03-02T04:04:49;1.90;;;1.80;;
12976;SDS011;6553;48.412;9.514;2024-03-02T04:07:15;1.80;;;1.70;;
12976;SDS011;6553;48.412;9.514;2024-03-02T04:09:41;1.90;;;1.80;;
12976;SDS011;6553;48.412;9.514;2024-03-02T04:12:07;1.92;;;1.83;;
12976;SDS011;6553;48.412;9.514;2024-03-02T04:14:32;1.50;;;1.40;;
12976;SDS011;6553;48.412;9.514;2024-03-02T04:16:58;1.52;;;1.42;;
12976;SDS011;6553;48.412;9.514;2024-03-02T04:19:24;1.88;;;1.73;;
12976;SDS011;6553;48.412;9.514;2024-03-02T04:21:49;1.92;;;1.83;;
12976;SDS011;6553;48.412;9.514;2024-03-02T04:24:15;1.55;;;1.45;;
12976;SDS011;6553;48.412;9.514;2024-03-02T04:26:41;1.80;;;1.70;;
12976;SDS011;6553;48.412;9.514;2024-03-02T04:29:06;1.75;;;1.65;;
12976;SDS011;6553;48.412;9.514;2024-03-02T04:31:32;1.65;;;1.55;;
12976;SDS011;6553;48.412;9.514;2024-03-02T04:33:58;1.45;;;1.35;;
12976;SDS011;6553;48.412;9.514;2024-03-02T04:36:24;1.40;;;1.30;;
12976;SDS011;6553;48.412;9.514;2024-03-02T04:38:50;1.30;;;1.20;;
12976;SDS011;6553;48.412;9.514;2024-03-02T04:41:15;1.70;;;1.60;;
12976;SDS011;6553;48.412;9.514;2024-03-02T04:43:42;1.40;;;1.30;;
12976;SDS011;6553;48.412;9.514;2024-03-02T04:46:07;1.48;;;1.38;;
12976;SDS011;6553;48.412;9.514;2024-03-02T04:48:33;1.63;;;1.52;;
12976;SDS011;6553;48.412;9.514;2024-03-02T04:50:59;1.50;;;1.40;;
12976;SDS011;6553;48.412;9.514;2024-03-02T04:53:25;1.33;;;1.23;;
12976;SDS011;6553;48.412;9.514;2024-03-02T04:55:50;1.58;;;1.48;;
12976;SDS011;6553;48.412;9.514;2024-03-02T04:58:19;1.55;;;1.45;;
12976;SDS011;6553;48.412;9.514;2024-03-02T05:00:45;1.70;;;1.60;;
12976;SDS011;6553;48.412;9.514;2024-03-02T05:03:11;1.48;;;1.38;;
12976;SDS011;6553;48.412;9.514;2024-03-02T05:05:38;1.08;;;1.08;;
12976;SDS011;6553;48.412;9.514;2024-03-02T05:08:04;1.30;;;1.20;;
12976;SDS011;6553;48.412;9.514;2024-03-02T05:10:30;1.58;;;1.48;;
12976;SDS011;6553;48.412;9.514;2024-03-02T05:12:56;1.40;;;1.30;;
12976;SDS011;6553;48.412;9.514;2024-03-02T05:15:22;1.67;;;1.58;;
12976;SDS011;6553;48.412;9.514;2024-03-02T05:17:47;1.50;;;1.40;;
12976;SDS011;6553;48.412;9.514;2024-03-02T05:20:13;1.55;;;1.45;;
12976;SDS011;6553;48.412;9.514;2024-03-02T05:22:39;1.70;;;1.60;;
12976;SDS011;6553;48.412;9.514;2024-03-02T05:25:05;1.40;;;1.30;;
12976;SDS011;6553;48.412;9.514;2024-03-02T05:27:32;1.40;;;1.30;;
12976;SDS011;6553;48.412;9.514;2024-03-02T05:29:58;1.50;;;1.40;;
12976;SDS011;6553;48.412;9.514;2024-03-02T05:32:24;1.10;;;1.10;;
12976;SDS011;6553;48.412;9.514;2024-03-02T05:34:50;1.60;;;1.50;;
12976;SDS011;6553;48.412;9.514;2024-03-02T05:37:16;1.40;;;1.30;;
12976;SDS011;6553;48.412;9.514;2024-03-02T05:39:43;1.40;;;1.30;;
12976;SDS011;6553;48.412;9.514;2024-03-02T05:42:09;1.33;;;1.23;;
12976;SDS011;6553;48.412;9.514;2024-03-02T05:44:35;1.70;;;1.60;;
12976;SDS011;6553;48.412;9.514;2024-03-02T05:47:01;1.50;;;1.40;;
12976;SDS011;6553;48.412;9.514;2024-03-02T05:49:28;1.30;;;1.20;;
12976;SDS011;6553;48.412;9.514;2024-03-02T05:51:54;1.60;;;1.50;;
12976;SDS011;6553;48.412;9.514;2024-03-02T05:54:19;1.05;;;1.02;;
12976;SDS011;6553;48.412;9.514;2024-03-02T05:56:45;1.48;;;1.38;;
12976;SDS011;6553;48.412;9.514;2024-03-02T05:59:11;1.45;;;1.35;;
12976;SDS011;6553;48.412;9.514;2024-03-02T06:01:44;1.30;;;1.20;;
12976;SDS011;6553;48.412;9.514;2024-03-02T06:04:12;1.30;;;1.20;;
12976;SDS011;6553;48.412;9.514;2024-03-02T06:06:38;1.58;;;1.48;;
12976;SDS011;6553;48.412;9.514;2024-03-02T06:09:05;1.33;;;1.23;;
12976;SDS011;6553;48.412;9.514;2024-03-02T06:11:38;1.40;;;1.30;;
12976;SDS011;6553;48.412;9.514;2024-03-02T06:14:05;1.48;;;1.38;;
12976;SDS011;6553;48.412;9.514;2024-03-02T06:16:33;1.40;;;1.30;;
12976;SDS011;6553;48.412;9.514;2024-03-02T06:18:59;1.38;;;1.27;;
12976;SDS011;6553;48.412;9.514;2024-03-02T06:21:26;1.10;;;1.10;;
12976;SDS011;6553;48.412;9.514;2024-03-02T06:23:52;1.40;;;1.30;;
12976;SDS011;6553;48.412;9.514;2024-03-02T06:26:19;1.45;;;1.35;;
12976;SDS011;6553;48.412;9.514;2024-03-02T06:28:45;1.00;;;1.00;;
12976;SDS011;6553;48.412;9.514;2024-03-02T06:31:11;1.13;;;1.10;;
12976;SDS011;6553;48.412;9.514;2024-03-02T06:33:37;1.50;;;1.40;;
12976;SDS011;6553;48.412;9.514;2024-03-02T06:36:03;1.40;;;1.30;;
12976;SDS011;6553;48.412;9.514;2024-03-02T06:38:29;1.67;;;1.50;;
12976;SDS011;6553;48.412;9.514;2024-03-02T06:40:57;1.50;;;1.40;;
12976;SDS011;6553;48.412;9.514;2024-03-02T06:43:23;1.27;;;1.23;;
12976;SDS011;6553;48.412;9.514;2024-03-02T06:45:50;1.33;;;1.23;;
12976;SDS011;6553;48.412;9.514;2024-03-02T06:48:16;1.40;;;1.30;;
12976;SDS011;6553;48.412;9.514;2024-03-02T06:50:48;1.40;;;1.30;;
12976;SDS011;6553;48.412;9.514;2024-03-02T06:53:15;1.38;;;1.30;;
12976;SDS011;6553;48.412;9.514;2024-03-02T06:55:45;1.60;;;1.50;;
12976;SDS011;6553;48.412;9.514;2024-03-02T06:58:11;1.10;;;1.10;;
12976;SDS011;6553;48.412;9.514;2024-03-02T07:00:43;1.13;;;1.13;;
12976;SDS011;6553;48.412;9.514;2024-03-02T07:03:09;1.38;;;1.27;;
12976;SDS011;6553;48.412;9.514;2024-03-02T07:05:36;1.50;;;1.40;;
12976;SDS011;6553;48.412;9.514;2024-03-02T07:08:01;1.50;;;1.40;;
12976;SDS011;6553;48.412;9.514;2024-03-02T07:10:28;1.30;;;1.17;;
12976;SDS011;6553;48.412;9.514;2024-03-02T07:12:54;1.38;;;1.27;;
12976;SDS011;6553;48.412;9.514;2024-03-02T07:15:19;1.10;;;1.10;;
12976;SDS011;6553;48.412;9.514;2024-03-02T07:18:06;1.15;;;1.08;;
12976;SDS011;6553;48.412;9.514;2024-03-02T07:20:31;1.50;;;1.40;;
12976;SDS011;6553;48.412;9.514;2024-03-02T07:22:57;1.85;;;1.30;;
12976;SDS011;6553;48.412;9.514;2024-03-02T07:25:23;1.23;;;1.13;;
12976;SDS011;6553;48.412;9.514;2024-03-02T07:27:49;1.27;;;1.20;;
12976;SDS011;6553;48.412;9.514;2024-03-02T07:30:15;1.02;;;1.02;;
12976;SDS011;6553;48.412;9.514;2024-03-02T07:32:41;1.65;;;1.50;;
12976;SDS011;6553;48.412;9.514;2024-03-02T07:35:10;1.17;;;1.17;;
12976;SDS011;6553;48.412;9.514;2024-03-02T07:37:40;1.40;;;1.30;;
12976;SDS011;6553;48.412;9.514;2024-03-02T07:40:07;1.45;;;1.35;;
12976;SDS011;6553;48.412;9.514;2024-03-02T07:42:36;1.27;;;1.17;;
12976;SDS011;6553;48.412;9.514;2024-03-02T07:45:06;1.20;;;1.20;;
12976;SDS011;6553;48.412;9.514;2024-03-02T07:47:33;1.08;;;1.05;;
12976;SDS011;6553;48.412;9.514;2024-03-02T07:50:00;1.33;;;1.17;;
12976;SDS011;6553;48.412;9.514;2024-03-02T07:52:26;1.50;;;1.40;;
12976;SDS011;6553;48.412;9.514;2024-03-02T07:54:51;1.40;;;1.30;;
12976;SDS011;6553;48.412;9.514;2024-03-02T07:57:17;1.25;;;1.20;;
12976;SDS011;6553;48.412;9.514;2024-03-02T07:59:43;1.60;;;1.08;;
12976;SDS011;6553;48.412;9.514;2024-03-02T08:02:09;1.45;;;1.30;;
12976;SDS011;6553;48.412;9.514;2024-03-02T08:04:35;1.45;;;1.10;;
12976;SDS011;6553;48.412;9.514;2024-03-02T08:07:02;1.33;;;1.23;;
12976;SDS011;6553;48.412;9.514;2024-03-02T08:09:28;1.20;;;1.10;;
12976;SDS011;6553;48.412;9.514;2024-03-02T08:11:53;1.25;;;1.20;;
12976;SDS011;6553;48.412;9.514;2024-03-02T08:14:19;1.20;;;1.10;;
12976;SDS011;6553;48.412;9.514;2024-03-02T08:16:45;1.33;;;1.23;;
12976;SDS011;6553;48.412;9.514;2024-03-02T08:19:11;1.20;;;1.17;;
12976;SDS011;6553;48.412;9.514;2024-03-02T08:21:37;1.05;;;1.05;;
12976;SDS011;6553;48.412;9.514;2024-03-02T08:24:02;1.83;;;1.30;;
12976;SDS011;6553;48.412;9.514;2024-03-02T08:26:29;1.40;;;1.30;;
12976;SDS011;6553;48.412;9.514;2024-03-02T08:28:56;1.08;;;1.08;;
12976;SDS011;6553;48.412;9.514;2024-03-02T08:31:23;1.40;;;1.30;;
12976;SDS011;6553;48.412;9.514;2024-03-02T08:33:49;1.40;;;1.30;;
12976;SDS011;6553;48.412;9.514;2024-03-02T08:36:15;1.90;;;1.05;;
12976;SDS011;6553;48.412;9.514;2024-03-02T08:38:41;1.00;;;1.00;;
12976;SDS011;6553;48.412;9.514;2024-03-02T08:41:07;1.17;;;1.08;;
12976;SDS011;6553;48.412;9.514;2024-03-02T08:43:33;1.40;;;1.30;;
12976;SDS011;6553;48.412;9.514;2024-03-02T08:45:59;1.27;;;1.17;;
12976;SDS011;6553;48.412;9.514;2024-03-02T08:48:25;1.30;;;1.20;;
12976;SDS011;6553;48.412;9.514;2024-03-02T08:50:50;1.58;;;1.20;;
12976;SDS011;6553;48.412;9.514;2024-03-02T08:53:16;1.40;;;1.30;;
12976;SDS011;6553;48.412;9.514;2024-03-02T08:55:44;1.60;;;1.50;;
12976;SDS011;6553;48.412;9.514;2024-03-02T08:58:11;1.30;;;1.20;;
12976;SDS011;6553;48.412;9.514;2024-03-02T09:00:37;1.58;;;1.48;;
12976;SDS011;6553;48.412;9.514;2024-03-02T09:03:03;2.00;;;1.40;;
12976;SDS011;6553;48.412;9.514;2024-03-02T09:05:29;1.45;;;1.35;;
12976;SDS011;6553;48.412;9.514;2024-03-02T09:07:55;1.40;;;1.30;;
12976;SDS011;6553;48.412;9.514;2024-03-02T09:10:21;1.20;;;1.20;;
12976;SDS011;6553;48.412;9.514;2024-03-02T09:12:46;1.20;;;1.10;;
12976;SDS011;6553;48.412;9.514;2024-03-02T09:15:12;1.95;;;1.40;;
12976;SDS011;6553;48.412;9.514;2024-03-02T09:17:38;1.33;;;1.23;;
12976;SDS011;6553;48.412;9.514;2024-03-02T09:20:04;1.40;;;1.30;;
12976;SDS011;6553;48.412;9.514;2024-03-02T09:22:31;1.98;;;1.33;;
12976;SDS011;6553;48.412;9.514;2024-03-02T09:24:57;1.85;;;1.42;;
12976;SDS011;6553;48.412;9.514;2024-03-02T09:27:23;1.50;;;1.40;;
12976;SDS011;6553;48.412;9.514;2024-03-02T09:29:49;1.60;;;1.50;;
12976;SDS011;6553;48.412;9.514;2024-03-02T09:32:15;1.30;;;1.20;;
12976;SDS011;6553;48.412;9.514;2024-03-02T09:34:41;1.40;;;1.30;;
12976;SDS011;6553;48.412;9.514;2024-03-02T09:37:07;1.40;;;1.30;;
12976;SDS011;6553;48.412;9.514;2024-03-02T09:39:32;1.58;;;1.48;;
12976;SDS011;6553;48.412;9.514;2024-03-02T09:41:59;1.45;;;1.35;;
12976;SDS011;6553;48.412;9.514;2024-03-02T09:44:25;1.55;;;1.45;;
12976;SDS011;6553;48.412;9.514;2024-03-02T09:46:51;1.70;;;1.60;;
12976;SDS011;6553;48.412;9.514;2024-03-02T09:49:17;1.30;;;1.20;;
12976;SDS011;6553;48.412;9.514;2024-03-02T09:51:47;1.30;;;1.20;;
12976;SDS011;6553;48.412;9.514;2024-03-02T09:54:13;2.60;;;1.73;;
12976;SDS011;6553;48.412;9.514;2024-03-02T09:56:41;1.30;;;1.20;;
12976;SDS011;6553;48.412;9.514;2024-03-02T09:59:07;1.55;;;1.38;;
12976;SDS011;6553;48.412;9.514;2024-03-02T10:01:33;1.35;;;1.25;;
12976;SDS011;6553;48.412;9.514;2024-03-02T10:03:59;1.50;;;1.40;;
12976;SDS011;6553;48.412;9.514;2024-03-02T10:06:26;1.50;;;1.38;;
12976;SDS011;6553;48.412;9.514;2024-03-02T10:08:53;1.67;;;1.45;;
12976;SDS011;6553;48.412;9.514;2024-03-02T10:11:27;1.50;;;1.40;;
12976;SDS011;6553;48.412;9.514;2024-03-02T10:16:37;1.90;;;1.40;;
12976;SDS011;6553;48.412;9.514;2024-03-02T10:21:48;2.80;;;1.65;;
12976;SDS011;6553;48.412;9.514;2024-03-02T10:24:16;1.50;;;1.40;;
12976;SDS011;6553;48.412;9.514;2024-03-02T10:26:43;1.30;;;1.23;;
12976;SDS011;6553;48.412;9.514;2024-03-02T10:29:10;1.67;;;1.42;;
12976;SDS011;6553;48.412;9.514;2024-03-02T10:31:40;1.67;;;1.50;;
12976;SDS011;6553;48.412;9.514;2024-03-02T10:34:08;1.33;;;1.23;;
12976;SDS011;6553;48.412;9.514;2024-03-02T10:36:35;1.40;;;1.30;;
12976;SDS011;6553;48.412;9.514;2024-03-02T10:39:03;1.40;;;1.30;;
12976;SDS011;6553;48.412;9.514;2024-03-02T10:41:33;1.40;;;1.30;;
12976;SDS011;6553;48.412;9.514;2024-03-02T10:44:04;1.40;;;1.30;;
12976;SDS011;6553;48.412;9.514;2024-03-02T10:46:33;1.50;;;1.25;;
12976;SDS011;6553;48.412;9.514;2024-03-02T10:49:02;0.95;;;0.95;;
12976;SDS011;6553;48.412;9.514;2024-03-02T10:51:31;1.50;;;1.40;;
12976;SDS011;6553;48.412;9.514;2024-03-02T10:53:59;1.52;;;1.42;;
12976;SDS011;6553;48.412;9.514;2024-03-02T11:01:47;1.45;;;1.35;;
12976;SDS011;6553;48.412;9.514;2024-03-02T11:04:15;1.17;;;1.17;;
12976;SDS011;6553;48.412;9.514;2024-03-02T11:07:06;1.30;;;1.20;;
12976;SDS011;6553;48.412;9.514;2024-03-02T11:09:36;1.00;;;0.90;;
12976;SDS011;6553;48.412;9.514;2024-03-02T11:12:12;1.15;;;1.15;;
12976;SDS011;6553;48.412;9.514;2024-03-02T11:14:47;1.10;;;1.10;;
12976;SDS011;6553;48.412;9.514;2024-03-02T11:17:17;1.30;;;1.20;;
12976;SDS011;6553;48.412;9.514;2024-03-02T11:19:43;1.15;;;1.05;;
12976;SDS011;6553;48.412;9.514;2024-03-02T11:22:13;1.30;;;1.20;;
12976;SDS011;6553;48.412;9.514;2024-03-02T11:24:47;1.30;;;1.20;;
12976;SDS011;6553;48.412;9.514;2024-03-02T11:27:15;1.92;;;1.42;;
12976;SDS011;6553;48.412;9.514;2024-03-02T11:32:57;0.90;;;0.88;;
12976;SDS011;6553;48.412;9.514;2024-03-02T11:35:32;1.20;;;1.10;;
12976;SDS011;6553;48.412;9.514;2024-03-02T11:38:02;1.15;;;1.08;;
12976;SDS011;6553;48.412;9.514;2024-03-02T11:40:29;1.55;;;1.30;;
12976;SDS011;6553;48.412;9.514;2024-03-02T11:42:59;1.42;;;1.30;;
12976;SDS011;6553;48.412;9.514;2024-03-02T11:45:28;1.45;;;1.35;;
12976;SDS011;6553;48.412;9.514;2024-03-02T11:47:56;1.75;;;1.30;;
12976;SDS011;6553;48.412;9.514;2024-03-02T11:53:03;1.80;;;1.40;;
12976;SDS011;6553;48.412;9.514;2024-03-02T11:55:34;1.20;;;1.10;;
12976;SDS011;6553;48.412;9.514;2024-03-02T11:58:02;1.83;;;1.20;;
12976;SDS011;6553;48.412;9.514;2024-03-02T12:00:31;1.23;;;1.13;;
12976;SDS011;6553;48.412;9.514;2024-03-02T12:05:27;1.35;;;1.17;;
12976;SDS011;6553;48.412;9.514;2024-03-02T12:07:57;2.00;;;1.20;;
12976;SDS011;6553;48.412;9.514;2024-03-02T12:10:24;1.20;;;1.10;;
12976;SDS011;6553;48.412;9.514;2024-03-02T12:13:00;1.30;;;1.20;;
12976;SDS011;6553;48.412;9.514;2024-03-02T12:15:35;0.95;;;0.95;;
12976;SDS011;6553;48.412;9.514;2024-03-02T12:18:03;1.20;;;1.10;;
12976;SDS011;6553;48.412;9.514;2024-03-02T12:20:30;1.08;;;1.05;;
12976;SDS011;6553;48.412;9.514;2024-03-02T12:22:58;1.40;;;1.17;;
12976;SDS011;6553;48.412;9.514;2024-03-02T12:25:27;1.10;;;0.95;;
12976;SDS011;6553;48.412;9.514;2024-03-02T12:27:56;1.17;;;1.13;;
12976;SDS011;6553;48.412;9.514;2024-03-02T12:30:24;1.30;;;1.10;;
12976;SDS011;6553;48.412;9.514;2024-03-02T12:32:54;1.02;;;1.00;;
12976;SDS011;6553;48.412;9.514;2024-03-02T12:35:20;1.25;;;1.15;;
12976;SDS011;6553;48.412;9.514;2024-03-02T12:37:49;1.10;;;1.10;;
12976;SDS011;6553;48.412;9.514;2024-03-02T12:40:17;1.40;;;1.30;;
12976;SDS011;6553;48.412;9.514;2024-03-02T12:42:45;1.13;;;1.00;;
12976;SDS011;6553;48.412;9.514;2024-03-02T12:45:12;1.15;;;1.15;;
12976;SDS011;6553;48.412;9.514;2024-03-02T12:47:42;1.13;;;1.05;;
12976;SDS011;6553;48.412;9.514;2024-03-02T12:50:08;0.95;;;0.95;;
12976;SDS011;6553;48.412;9.514;2024-03-02T12:52:35;1.20;;;1.10;;
12976;SDS011;6553;48.412;9.514;2024-03-02T12:55:01;0.82;;;0.82;;
12976;SDS011;6553;48.412;9.514;2024-03-02T12:57:30;1.58;;;1.48;;
12976;SDS011;6553;48.412;9.514;2024-03-02T13:00:01;1.40;;;1.30;;
12976;SDS011;6553;48.412;9.514;2024-03-02T13:02:39;1.35;;;1.25;;
12976;SDS011;6553;48.412;9.514;2024-03-02T13:05:07;1.33;;;1.23;;
12976;SDS011;6553;48.412;9.514;2024-03-02T13:07:36;1.55;;;1.33;;
12976;SDS011;6553;48.412;9.514;2024-03-02T13:10:03;1.40;;;1.20;;
12976;SDS011;6553;48.412;9.514;2024-03-02T13:12:32;1.70;;;1.60;;
12976;SDS011;6553;48.412;9.514;2024-03-02T13:14:58;1.80;;;1.50;;
12976;SDS011;6553;48.412;9.514;2024-03-02T13:17:24;1.60;;;1.40;;
12976;SDS011;6553;48.412;9.514;2024-03-02T13:19:56;1.55;;;1.45;;
12976;SDS011;6553;48.412;9.514;2024-03-02T13:22:24;1.67;;;1.20;;
12976;SDS011;6553;48.412;9.514;2024-03-02T13:24:50;1.50;;;1.40;;
12976;SDS011;6553;48.412;9.514;2024-03-02T13:27:19;1.50;;;1.20;;
12976;SDS011;6553;48.412;9.514;2024-03-02T13:29:45;1.65;;;1.20;;
12976;SDS011;6553;48.412;9.514;2024-03-02T13:32:13;1.30;;;1.20;;
12976;SDS011;6553;48.412;9.514;2024-03-02T13:34:39;1.40;;;1.30;;
12976;SDS011;6553;48.412;9.514;2024-03-02T13:37:06;1.35;;;1.25;;
12976;SDS011;6553;48.412;9.514;2024-03-02T13:39:32;2.05;;;1.35;;
12976;SDS011;6553;48.412;9.514;2024-03-02T13:42:00;1.40;;;1.30;;
12976;SDS011;6553;48.412;9.514;2024-03-02T13:44:31;1.30;;;1.20;;
12976;SDS011;6553;48.412;9.514;2024-03-02T13:46:57;1.40;;;1.30;;
12976;SDS011;6553;48.412;9.514;2024-03-02T13:49:25;1.42;;;1.33;;
12976;SDS011;6553;48.412;9.514;2024-03-02T13:51:59;1.23;;;1.13;;
12976;SDS011;6553;48.412;9.514;2024-03-02T13:54:27;1.40;;;1.30;;
12976;SDS011;6553;48.412;9.514;2024-03-02T13:56:55;1.25;;;1.17;;
12976;SDS011;6553;48.412;9.514;2024-03-02T13:59:23;1.35;;;1.27;;
12976;SDS011;6553;48.412;9.514;2024-03-02T14:01:50;1.90;;;1.20;;
12976;SDS011;6553;48.412;9.514;2024-03-02T14:04:16;1.27;;;1.17;;
12976;SDS011;6553;48.412;9.514;2024-03-02T14:06:42;1.38;;;1.27;;
12976;SDS011;6553;48.412;9.514;2024-03-02T14:09:09;2.20;;;1.52;;
12976;SDS011;6553;48.412;9.514;2024-03-02T14:11:34;1.40;;;1.30;;
12976;SDS011;6553;48.412;9.514;2024-03-02T14:14:00;1.35;;;1.25;;
12976;SDS011;6553;48.412;9.514;2024-03-02T14:16:27;1.30;;;1.15;;
12976;SDS011;6553;48.412;9.514;2024-03-02T14:18:53;1.10;;;1.00;;
12976;SDS011;6553;48.412;9.514;2024-03-02T14:21:19;1.50;;;1.40;;
12976;SDS011;6553;48.412;9.514;2024-03-02T14:23:45;1.75;;;1.42;;
12976;SDS011;6553;48.412;9.514;2024-03-02T14:26:11;1.42;;;1.33;;
12976;SDS011;6553;48.412;9.514;2024-03-02T14:28:36;0.93;;;0.90;;
12976;SDS011;6553;48.412;9.514;2024-03-02T14:31:02;1.33;;;1.23;;
12976;SDS011;6553;48.412;9.514;2024-03-02T14:33:28;1.27;;;1.17;;
12976;SDS011;6553;48.412;9.514;2024-03-02T14:35:54;1.38;;;1.27;;
12976;SDS011;6553;48.412;9.514;2024-03-02T14:38:19;1.25;;;1.15;;
12976;SDS011;6553;48.412;9.514;2024-03-02T14:40:45;1.73;;;1.33;;
12976;SDS011;6553;48.412;9.514;2024-03-02T14:43:11;1.40;;;1.30;;
12976;SDS011;6553;48.412;9.514;2024-03-02T14:45:37;1.40;;;1.30;;
12976;SDS011;6553;48.412;9.514;2024-03-02T14:48:03;1.33;;;1.23;;
12976;SDS011;6553;48.412;9.514;2024-03-02T14:50:29;1.52;;;1.40;;
12976;SDS011;6553;48.412;9.514;2024-03-02T14:52:55;1.30;;;1.20;;
12976;SDS011;6553;48.412;9.514;2024-03-02T14:55:25;2.75;;;1.30;;
12976;SDS011;6553;48.412;9.514;2024-03-02T14:57:51;1.42;;;1.33;;
12976;SDS011;6553;48.412;9.514;2024-03-02T15:00:16;1.85;;;1.10;;
12976;SDS011;6553;48.412;9.514;2024-03-02T15:02:43;1.80;;;1.10;;
12976;SDS011;6553;48.412;9.514;2024-03-02T15:05:09;1.30;;;1.20;;
12976;SDS011;6553;48.412;9.514;2024-03-02T15:07:34;1.35;;;1.20;;
12976;SDS011;6553;48.412;9.514;2024-03-02T15:10:00;1.38;;;1.27;;
12976;SDS011;6553;48.412;9.514;2024-03-02T15:12:26;1.20;;;1.10;;
12976;SDS011;6553;48.412;9.514;2024-03-02T15:14:52;1.00;;;1.00;;
12976;SDS011;6553;48.412;9.514;2024-03-02T15:17:18;1.80;;;1.30;;
12976;SDS011;6553;48.412;9.514;2024-03-02T15:19:44;1.38;;;1.27;;
12976;SDS011;6553;48.412;9.514;2024-03-02T15:22:11;1.50;;;1.40;;